Time;durP1;ratioP1;P1;durP2;ratioP2;P2;SDS_P1;SDS_P2;PMS_P1;PMS_P2;Temp;Humidity;BMP_temperature;BMP_pressure;BME280_temperature;BME280_humidity;BME280_pressure;Samples;Min_cycle;Max_cycle;Signal;HPM_P1;HPM_P2
2021/12/11 00:01:18;;;;;;;12.43;7.95;;;0.90;72.30;;;;;;5008623;28;20504;-75
2021/12/11 00:03:48;;;;;;;12.07;8.70;;;0.90;72.30;;;;;;5005323;28;20056;-74
2021/12/11 00:06:16;;;;;;;10.83;6.97;;;0.90;72.40;;;;;;5015522;28;20057;-75
2021/12/11 00:08:45;;;;;;;11.50;8.13;;;0.90;72.40;;;;;;5015208;28;20038;-75
2021/12/11 00:11:16;;;;;;;11.00;7.57;;;0.80;72.40;;;;;;5015500;28;20557;-75
2021/12/11 00:13:44;;;;;;;11.70;8.43;;;0.90;72.50;;;;;;5015567;28;20069;-74
2021/12/11 00:16:15;;;;;;;11.23;7.57;;;0.90;72.60;;;;;;5018068;28;20383;-75
2021/12/11 00:18:41;;;;;;;9.87;7.13;;;0.90;72.60;;;;;;5014612;28;20152;-74
2021/12/11 00:21:11;;;;;;;10.63;7.37;;;0.90;72.60;;;;;;5015799;28;20042;-75
2021/12/11 00:23:41;;;;;;;9.40;7.67;;;0.90;72.60;;;;;;5015682;28;20042;-75
2021/12/11 00:26:10;;;;;;;11.40;8.20;;;0.90;72.70;;;;;;5015447;28;20050;-75
2021/12/11 00:28:44;;;;;;;10.93;7.67;;;0.90;72.70;;;;;;5015459;28;20401;-75
2021/12/11 00:31:10;;;;;;;10.07;7.43;;;0.90;72.80;;;;;;5016234;28;20061;-75
2021/12/11 00:33:36;;;;;;;10.57;7.77;;;0.90;72.70;;;;;;5015996;28;20046;-75
2021/12/11 00:36:12;;;;;;;12.20;8.00;;;0.90;72.80;;;;;;5015996;28;20042;-75
2021/12/11 00:38:38;;;;;;;11.10;7.93;;;0.90;72.90;;;;;;5013292;28;20068;-75
2021/12/11 00:41:08;;;;;;;12.17;8.00;;;0.90;72.80;;;;;;5015254;28;20045;-75
2021/12/11 00:43:35;;;;;;;12.13;8.13;;;0.90;72.80;;;;;;5015046;28;20500;-75
2021/12/11 00:46:05;;;;;;;11.00;8.53;;;0.90;72.80;;;;;;5016323;28;20048;-75
2021/12/11 00:48:31;;;;;;;12.50;8.73;;;0.90;72.80;;;;;;5014692;28;20052;-75
2021/12/11 00:51:09;;;;;;;12.43;8.23;;;0.90;72.80;;;;;;5014388;28;20037;-75
2021/12/11 00:53:41;;;;;;;12.63;8.87;;;0.90;72.80;;;;;;5014889;28;20081;-75
2021/12/11 00:56:14;;;;;;;10.80;8.00;;;1.00;72.80;;;;;;5015036;28;20508;-75
2021/12/11 00:58:41;;;;;;;12.47;7.77;;;1.00;72.80;;;;;;5007478;28;20093;-75
2021/12/11 01:01:06;;;;;;;13.40;8.67;;;1.00;72.70;;;;;;5014153;28;20050;-75
2021/12/11 01:03:35;;;;;;;11.87;8.10;;;0.90;72.60;;;;;;5015721;28;20053;-75
2021/12/11 01:06:09;;;;;;;10.77;7.60;;;1.00;72.60;;;;;;5014045;28;20053;-75
2021/12/11 01:08:39;;;;;;;12.52;8.50;;;1.00;72.70;;;;;;5015102;28;20033;-75
2021/12/11 01:11:21;;;;;;;11.60;8.30;;;1.00;72.60;;;;;;5015536;28;20485;-75
2021/12/11 01:13:53;;;;;;;12.17;7.87;;;0.90;72.50;;;;;;5014324;28;20083;-75
2021/12/11 01:16:20;;;;;;;10.70;7.80;;;1.00;72.30;;;;;;5010274;28;20038;-75
2021/12/11 01:18:50;;;;;;;11.10;7.83;;;0.90;72.00;;;;;;5010099;28;20519;-75
2021/12/11 01:21:29;;;;;;;9.17;6.93;;;0.90;72.00;;;;;;5007290;28;20061;-75
2021/12/11 01:26:35;;;;;;;12.67;7.60;;;0.90;72.20;;;;;;5013288;28;20054;-75
2021/12/11 01:29:01;;;;;;;12.93;7.90;;;0.90;72.20;;;;;;5015559;28;20104;-75
2021/12/11 01:31:28;;;;;;;11.73;7.70;;;0.80;72.20;;;;;;5013113;28;20042;-75
2021/12/11 01:33:56;;;;;;;11.17;7.40;;;0.90;72.40;;;;;;5013448;28;20042;-75
2021/12/11 01:36:22;;;;;;;11.30;7.30;;;0.90;72.40;;;;;;5014989;28;20480;-75
2021/12/11 01:38:57;;;;;;;11.83;7.90;;;0.90;72.50;;;;;;5014678;28;20081;-75
2021/12/11 01:41:23;;;;;;;13.03;7.27;;;0.90;72.60;;;;;;5013343;28;20050;-75
2021/12/11 01:43:54;;;;;;;10.57;7.17;;;0.90;72.60;;;;;;5013557;28;20053;-75
2021/12/11 01:46:22;;;;;;;10.93;7.47;;;0.90;72.70;;;;;;5013294;28;20050;-75
2021/12/11 01:48:51;;;;;;;10.83;7.50;;;0.90;72.70;;;;;;5013317;28;20064;-75
2021/12/11 01:51:26;;;;;;;12.63;7.37;;;0.90;72.70;;;;;;5013235;28;20042;-75
2021/12/11 01:54:17;;;;;;;10.10;7.30;;;0.90;72.60;;;;;;5014899;28;20369;-75
2021/12/11 01:56:47;;;;;;;13.63;7.33;;;1.00;72.80;;;;;;5012770;28;20492;-75
2021/12/11 01:59:23;;;;;;;10.07;7.27;;;0.90;72.70;;;;;;5009706;28;20042;-75
2021/12/11 02:02:04;;;;;;;9.67;7.00;;;1.00;72.70;;;;;;5014565;28;20120;-76
2021/12/11 02:04:32;;;;;;;10.60;7.00;;;1.00;72.70;;;;;;5013422;28;20499;-75
2021/12/11 02:07:04;;;;;;;11.33;7.03;;;1.00;72.60;;;;;;5014190;28;20049;-75
2021/12/11 02:09:33;;;;;;;9.30;7.17;;;0.90;72.50;;;;;;5014060;28;20060;-76
2021/12/11 02:12:06;;;;;;;13.10;8.03;;;1.00;72.50;;;;;;5014195;28;20041;-75
2021/12/11 02:14:38;;;;;;;11.80;7.67;;;0.90;72.40;;;;;;5014579;28;20049;-76
2021/12/11 02:17:05;;;;;;;12.13;7.53;;;1.00;72.50;;;;;;5009563;28;20141;-75
2021/12/11 02:19:36;;;;;;;10.97;8.33;;;0.90;72.40;;;;;;5008232;28;20389;-75
2021/12/11 02:22:02;;;;;;;10.40;7.17;;;0.90;72.30;;;;;;5014332;28;20057;-76
2021/12/11 02:24:36;;;;;;;10.20;7.33;;;0.90;72.20;;;;;;4996477;28;20043;-74
2021/12/11 02:27:11;;;;;;;9.63;7.85;;;0.90;72.10;;;;;;5013540;28;20389;-74
2021/12/11 02:29:46;;;;;;;10.40;7.00;;;0.90;72.10;;;;;;5013570;28;20042;-74
2021/12/11 02:32:29;;;;;;;11.73;7.00;;;0.90;72.00;;;;;;4996443;28;20050;-74
2021/12/11 02:35:02;;;;;;;11.40;7.70;;;0.90;72.00;;;;;;4999940;28;20050;-74
2021/12/11 02:37:49;;;;;;;12.03;7.20;;;0.90;72.10;;;;;;5012592;28;20038;-74
2021/12/11 02:40:21;;;;;;;11.13;6.97;;;0.90;72.10;;;;;;5013470;28;20041;-75
2021/12/11 02:42:55;;;;;;;12.10;7.90;;;0.90;72.10;;;;;;5013899;28;20128;-74
2021/12/11 02:45:38;;;;;;;9.90;7.07;;;0.90;72.10;;;;;;5013739;28;20129;-74
2021/12/11 02:48:11;;;;;;;11.50;7.67;;;0.90;72.10;;;;;;5012229;28;20073;-74
2021/12/11 02:50:43;;;;;;;10.17;7.00;;;0.90;72.50;;;;;;5013651;28;20060;-74
2021/12/11 02:53:15;;;;;;;11.10;7.80;;;0.90;72.00;;;;;;5011860;28;20425;-74
2021/12/11 02:55:46;;;;;;;8.80;6.67;;;0.90;72.00;;;;;;5013825;28;20050;-74
2021/12/11 02:58:27;;;;;;;10.00;7.33;;;0.90;72.00;;;;;;5013051;28;20092;-74
2021/12/11 03:00:59;;;;;;;11.43;7.30;;;0.90;71.90;;;;;;5013331;28;20592;-74
2021/12/11 03:03:34;;;;;;;11.07;7.23;;;0.90;71.90;;;;;;5013704;28;20135;-74
2021/12/11 03:06:09;;;;;;;10.97;7.37;;;0.80;71.70;;;;;;5013453;28;20050;-74
2021/12/11 03:08:36;;;;;;;11.27;6.77;;;0.80;71.20;;;;;;5013270;28;20073;-74
2021/12/11 03:11:09;;;;;;;10.93;7.10;;;0.80;71.10;;;;;;5013818;28;20092;-74
2021/12/11 03:13:38;;;;;;;11.23;8.13;;;0.70;71.20;;;;;;5012214;28;20038;-74
2021/12/11 03:16:05;;;;;;;11.83;7.43;;;0.70;71.30;;;;;;5013637;28;20046;-74
2021/12/11 03:18:31;;;;;;;11.27;7.33;;;0.70;71.50;;;;;;5013244;28;20038;-74
2021/12/11 03:20:56;;;;;;;9.40;6.80;;;0.70;71.60;;;;;;5011956;28;20064;-74
2021/12/11 03:23:23;;;;;;;11.93;7.73;;;0.70;71.70;;;;;;5012788;28;20124;-74
2021/12/11 03:25:49;;;;;;;13.00;7.60;;;0.70;71.80;;;;;;5012496;28;20441;-74
2021/12/11 03:28:18;;;;;;;10.50;7.30;;;0.70;71.90;;;;;;5013440;28;20421;-74
2021/12/11 03:30:52;;;;;;;11.97;7.80;;;0.70;71.90;;;;;;5012964;28;20129;-74
2021/12/11 03:33:19;;;;;;;12.05;7.78;;;0.70;71.90;;;;;;5011666;28;20049;-74
2021/12/11 03:35:45;;;;;;;12.00;7.90;;;0.70;71.90;;;;;;5012755;28;20085;-74
2021/12/11 03:38:13;;;;;;;12.70;7.50;;;0.70;71.90;;;;;;5008684;28;20136;-74
2021/12/11 03:40:40;;;;;;;12.10;7.53;;;0.60;71.80;;;;;;5002442;28;20042;-74
2021/12/11 03:43:09;;;;;;;11.33;7.30;;;0.70;71.90;;;;;;5017046;28;20109;-74
2021/12/11 03:45:37;;;;;;;11.87;7.90;;;0.70;72.00;;;;;;5017625;28;20080;-74
2021/12/11 03:48:11;;;;;;;11.77;8.00;;;0.70;72.00;;;;;;5016480;28;20045;-73
2021/12/11 03:50:38;;;;;;;12.15;7.25;;;0.60;71.90;;;;;;5015875;28;20050;-74
2021/12/11 03:53:05;;;;;;;11.83;7.90;;;0.70;71.90;;;;;;5016071;28;20056;-74
2021/12/11 03:55:36;;;;;;;11.00;7.90;;;0.70;71.90;;;;;;5017123;28;20121;-74
2021/12/11 03:58:04;;;;;;;12.63;8.10;;;0.60;71.90;;;;;;5016621;28;20160;-73
2021/12/11 04:00:35;;;;;;;12.10;8.13;;;0.60;71.80;;;;;;5016054;28;20620;-74
2021/12/11 04:03:05;;;;;;;14.47;9.50;;;0.60;71.90;;;;;;5016406;28;20133;-74
2021/12/11 04:05:38;;;;;;;13.20;8.93;;;0.60;71.80;;;;;;5016007;28;20057;-74
2021/12/11 04:08:05;;;;;;;13.77;9.63;;;0.60;71.80;;;;;;5015313;28;20045;-74
2021/12/11 04:10:31;;;;;;;12.27;8.67;;;0.60;71.70;;;;;;5015138;28;20050;-74
2021/12/11 04:13:00;;;;;;;14.27;9.00;;;0.60;71.70;;;;;;5015984;28;20042;-74
2021/12/11 04:15:27;;;;;;;14.07;9.37;;;0.60;71.70;;;;;;5015461;28;20053;-74
2021/12/11 04:17:54;;;;;;;12.23;8.17;;;0.60;71.70;;;;;;5016228;28;20088;-74
2021/12/11 04:20:24;;;;;;;13.90;8.80;;;0.60;71.70;;;;;;5016377;28;20381;-73
2021/12/11 04:22:50;;;;;;;13.83;9.57;;;0.60;71.70;;;;;;5016701;28;20045;-73
2021/12/11 04:25:19;;;;;;;19.50;11.90;;;0.60;71.40;;;;;;5015442;28;20046;-74
2021/12/11 04:27:46;;;;;;;17.77;11.50;;;0.50;70.60;;;;;;5016837;28;20493;-76
2021/12/11 04:30:14;;;;;;;16.47;10.63;;;0.40;69.80;;;;;;5015073;28;20046;-75
2021/12/11 04:32:41;;;;;;;17.10;10.13;;;0.30;69.60;;;;;;5016496;28;20525;-75
2021/12/11 04:35:11;;;;;;;15.13;10.03;;;0.20;69.50;;;;;;5015828;28;20030;-75
2021/12/11 04:37:39;;;;;;;13.50;9.70;;;0.10;69.80;;;;;;5015615;28;20058;-75
2021/12/11 04:40:15;;;;;;;14.27;9.17;;;0.10;70.10;;;;;;5015555;28;20088;-76
2021/12/11 04:43:05;;;;;;;15.60;9.87;;;0.00;70.40;;;;;;5010996;28;20058;-75
2021/12/11 04:45:34;;;;;;;16.47;10.97;;;0.00;70.80;;;;;;5016049;28;20049;-75
2021/12/11 04:48:21;;;;;;;17.53;10.93;;;0.00;70.90;;;;;;5015836;28;20049;-75
2021/12/11 04:51:08;;;;;;;12.70;8.83;;;-0.10;70.40;;;;;;5014887;28;20113;-75
2021/12/11 05:02:15;;;;;;;17.67;9.70;;;-0.20;71.10;;;;;;4993810;28;20129;-76
2021/12/11 05:09:53;;;;;;;19.67;12.00;;;-0.10;71.70;;;;;;4994161;28;20482;-74
2021/12/11 05:12:32;;;;;;;16.93;10.87;;;-0.10;71.80;;;;;;4977813;28;20038;-74
2021/12/11 05:14:58;;;;;;;17.67;11.67;;;-0.10;71.90;;;;;;4993192;28;20046;-73
2021/12/11 05:17:24;;;;;;;17.73;11.43;;;-0.10;71.90;;;;;;4977752;28;20049;-73
2021/12/11 05:19:51;;;;;;;15.73;10.93;;;0.00;72.10;;;;;;4992871;28;20418;-73
2021/12/11 05:22:17;;;;;;;18.83;12.53;;;-0.10;72.20;;;;;;4993451;28;20089;-73
2021/12/11 05:24:47;;;;;;;18.47;11.83;;;0.00;72.30;;;;;;4992887;28;20046;-74
2021/12/11 05:27:13;;;;;;;18.00;12.07;;;0.00;72.30;;;;;;4993477;28;20090;-73
2021/12/11 05:29:39;;;;;;;17.33;11.37;;;0.00;72.30;;;;;;4993433;28;20434;-73
2021/12/11 05:32:08;;;;;;;18.70;11.60;;;0.10;72.50;;;;;;4997621;28;20054;-73
2021/12/11 05:34:33;;;;;;;18.87;12.53;;;0.10;72.50;;;;;;5013303;28;20404;-73
2021/12/11 05:36:59;;;;;;;18.67;11.57;;;0.10;72.60;;;;;;5013389;28;20046;-73
2021/12/11 05:39:25;;;;;;;19.10;12.43;;;0.10;72.60;;;;;;5013037;28;20042;-74
2021/12/11 05:41:53;;;;;;;18.97;11.97;;;0.10;72.60;;;;;;5014888;28;20114;-73
2021/12/11 05:44:21;;;;;;;18.50;11.77;;;0.10;72.60;;;;;;5015156;28;20053;-74
2021/12/11 05:46:48;;;;;;;14.40;10.77;;;0.20;72.60;;;;;;5014378;28;20058;-74
2021/12/11 05:49:15;;;;;;;17.90;11.07;;;0.10;72.50;;;;;;5014781;28;20176;-74
2021/12/11 05:51:45;;;;;;;14.10;10.27;;;0.20;72.50;;;;;;5013806;28;20046;-74
2021/12/11 05:54:16;;;;;;;17.07;11.27;;;0.20;72.50;;;;;;5014476;28;20038;-74
2021/12/11 05:56:44;;;;;;;16.93;10.00;;;0.20;72.40;;;;;;5014192;28;20444;-74
2021/12/11 05:59:12;;;;;;;17.40;11.27;;;0.20;72.40;;;;;;5013399;28;20054;-74
2021/12/11 06:01:50;;;;;;;19.07;10.83;;;0.20;72.30;;;;;;5014537;28;20389;-74
2021/12/11 06:04:26;;;;;;;16.57;11.43;;;0.20;72.30;;;;;;5029865;28;20057;-74
2021/12/11 06:06:53;;;;;;;16.07;10.93;;;0.30;72.30;;;;;;5029549;28;20401;-74
2021/12/11 06:09:21;;;;;;;18.43;11.53;;;0.20;72.10;;;;;;5014251;28;20049;-74
2021/12/11 06:11:50;;;;;;;17.07;10.40;;;0.20;71.30;;;;;;5014572;28;20042;-74
2021/12/11 06:14:18;;;;;;;19.90;10.20;;;0.10;70.40;;;;;;5014035;28;20047;-74
2021/12/11 06:16:46;;;;;;;16.43;11.73;;;0.00;70.40;;;;;;5014144;28;20120;-74
2021/12/11 06:19:12;;;;;;;16.67;11.20;;;0.00;70.70;;;;;;5014417;28;20088;-74
2021/12/11 06:21:38;;;;;;;16.17;10.43;;;0.00;70.70;;;;;;5014336;28;20404;-74
2021/12/11 06:24:05;;;;;;;17.57;11.80;;;0.00;70.60;;;;;;5013217;28;20117;-74
2021/12/11 06:26:31;;;;;;;18.17;11.67;;;-0.10;70.80;;;;;;5014162;28;20397;-74
2021/12/11 06:28:57;;;;;;;19.93;12.50;;;-0.10;70.80;;;;;;5014494;28;20048;-74
2021/12/11 06:31:24;;;;;;;19.13;12.33;;;-0.10;70.80;;;;;;5013667;28;20082;-74
2021/12/11 06:33:53;;;;;;;18.10;11.83;;;-0.10;70.80;;;;;;5013248;28;20050;-74
2021/12/11 06:36:21;;;;;;;17.57;11.60;;;-0.10;70.70;;;;;;5013457;28;20049;-74
2021/12/11 06:38:54;;;;;;;16.13;11.23;;;-0.20;70.70;;;;;;5014026;28;20052;-74
2021/12/11 06:41:25;;;;;;;19.73;11.23;;;-0.20;71.30;;;;;;5013613;28;20085;-74
2021/12/11 06:43:51;;;;;;;18.30;11.93;;;-0.20;71.10;;;;;;5013028;28;20034;-74
2021/12/11 06:46:18;;;;;;;17.87;11.63;;;-0.20;71.10;;;;;;5013420;28;20084;-75
2021/12/11 06:48:44;;;;;;;18.60;11.97;;;-0.20;71.30;;;;;;5013025;28;20038;-74
2021/12/11 06:51:09;;;;;;;17.30;10.77;;;-0.20;71.30;;;;;;5028970;28;20041;-74
2021/12/11 06:53:40;;;;;;;19.00;12.47;;;-0.20;71.30;;;;;;5014089;28;20053;-74
2021/12/11 06:56:08;;;;;;;18.73;12.70;;;-0.20;71.40;;;;;;5012870;28;20049;-73
2021/12/11 06:58:34;;;;;;;19.40;12.63;;;-0.20;71.40;;;;;;5011856;28;20045;-74
2021/12/11 07:01:01;;;;;;;19.93;12.40;;;-0.30;71.40;;;;;;5012394;28;20396;-74
2021/12/11 07:03:27;;;;;;;21.20;12.73;;;-0.30;71.40;;;;;;4995402;28;20046;-75
2021/12/11 07:05:54;;;;;;;20.77;12.57;;;-0.30;71.30;;;;;;5012514;28;20397;-75
2021/12/11 07:08:22;;;;;;;21.27;13.63;;;-0.30;71.20;;;;;;5013385;28;20033;-74
2021/12/11 07:10:48;;;;;;;21.80;15.17;;;-0.30;71.30;;;;;;5014357;28;20046;-74
2021/12/11 07:13:14;;;;;;;21.93;14.27;;;-0.30;71.30;;;;;;5011945;28;20034;-74
2021/12/11 07:15:40;;;;;;;22.03;14.57;;;-0.30;71.40;;;;;;5012411;28;20056;-74
2021/12/11 07:18:07;;;;;;;16.67;11.83;;;-0.30;71.50;;;;;;5012986;28;20397;-74
2021/12/11 07:20:33;;;;;;;19.87;11.93;;;-0.30;71.60;;;;;;5012174;28;20042;-74
2021/12/11 07:22:59;;;;;;;17.37;11.87;;;-0.30;71.70;;;;;;5012778;28;20452;-74
2021/12/11 07:25:41;;;;;;;19.93;12.47;;;-0.40;71.80;;;;;;4996330;28;20050;-74
2021/12/11 07:28:08;;;;;;;18.53;11.97;;;-0.40;72.00;;;;;;5009048;28;20100;-74
2021/12/11 07:30:36;;;;;;;20.83;13.97;;;-0.30;72.60;;;;;;5009016;28;20049;-74
2021/12/11 07:33:04;;;;;;;19.50;12.60;;;-0.30;72.30;;;;;;4994307;28;20065;-74
2021/12/11 07:35:32;;;;;;;19.40;11.73;;;-0.30;72.50;;;;;;5013357;28;20046;-75
2021/12/11 07:37:58;;;;;;;21.07;12.57;;;-0.30;72.50;;;;;;5013712;28;20042;-74
2021/12/11 07:40:28;;;;;;;21.87;13.10;;;-0.20;72.60;;;;;;5012992;28;20131;-74
2021/12/11 07:42:55;;;;;;;22.00;13.70;;;-0.20;72.70;;;;;;5011071;28;20055;-75
2021/12/11 07:45:21;;;;;;;19.37;11.83;;;-0.20;72.60;;;;;;5012587;28;20042;-74
2021/12/11 07:47:48;;;;;;;19.47;12.33;;;-0.20;72.70;;;;;;5012232;28;20038;-75
2021/12/11 07:50:14;;;;;;;19.90;12.87;;;-0.10;72.80;;;;;;5012453;28;20050;-75
2021/12/11 07:52:40;;;;;;;18.73;12.20;;;-0.10;72.70;;;;;;5011633;28;20088;-74
2021/12/11 07:55:07;;;;;;;18.47;12.93;;;-0.10;72.70;;;;;;5013104;28;20053;-75
2021/12/11 07:57:33;;;;;;;17.70;12.40;;;-0.10;72.70;;;;;;5012593;28;20056;-74
2021/12/11 07:59:59;;;;;;;18.87;12.77;;;-0.10;72.70;;;;;;5013612;28;20042;-75
2021/12/11 08:02:26;;;;;;;17.97;12.30;;;0.00;72.70;;;;;;5012642;28;20397;-74
2021/12/11 08:04:51;;;;;;;18.17;12.50;;;0.00;72.70;;;;;;5010618;28;20082;-74
2021/12/11 08:07:17;;;;;;;21.07;13.03;;;0.00;72.70;;;;;;5011333;28;20088;-74
2021/12/11 08:09:43;;;;;;;20.30;12.47;;;0.00;72.80;;;;;;5012857;28;20038;-75
2021/12/11 08:12:09;;;;;;;20.70;13.20;;;0.10;72.80;;;;;;5012893;28;20366;-75
2021/12/11 08:14:34;;;;;;;20.90;13.30;;;0.00;72.80;;;;;;5011466;28;20030;-75
2021/12/11 08:17:04;;;;;;;27.03;17.27;;;0.10;72.80;;;;;;5028109;28;20165;-74
2021/12/11 08:19:30;;;;;;;22.03;14.80;;;0.10;72.80;;;;;;5012498;28;20042;-74
2021/12/11 08:21:59;;;;;;;27.53;17.37;;;0.00;72.70;;;;;;5013594;28;20397;-75
2021/12/11 08:24:27;;;;;;;28.57;17.60;;;0.10;72.80;;;;;;5010274;28;20484;-74
2021/12/11 08:26:55;;;;;;;21.63;14.03;;;0.10;72.70;;;;;;5011635;28;20046;-75
2021/12/11 08:29:20;;;;;;;23.53;17.10;;;0.10;72.60;;;;;;5013969;28;20046;-73
2021/12/11 08:31:50;;;;;;;28.43;20.17;;;0.20;72.70;;;;;;5014253;28;20038;-74
2021/12/11 08:34:15;;;;;;;25.90;17.57;;;0.20;72.70;;;;;;5010520;28;20049;-75
2021/12/11 08:36:43;;;;;;;24.73;15.63;;;0.20;72.70;;;;;;5013478;28;20050;-83
2021/12/11 08:39:11;;;;;;;25.37;16.13;;;0.20;72.60;;;;;;5011410;28;20398;-83
2021/12/11 08:41:37;;;;;;;28.43;17.43;;;0.20;72.70;;;;;;5006112;28;20041;-81
2021/12/11 08:44:09;;;;;;;27.40;17.67;;;0.30;72.80;;;;;;5018447;28;20034;-83
2021/12/11 08:46:36;;;;;;;27.20;18.10;;;0.30;72.80;;;;;;5014038;28;20398;-84
2021/12/11 08:49:17;;;;;;;28.40;18.87;;;0.30;72.70;;;;;;5014139;28;20485;-82
2021/12/11 08:51:48;;;;;;;30.27;21.70;;;0.30;72.80;;;;;;5018189;28;20109;-81
2021/12/11 08:54:15;;;;;;;31.17;21.90;;;0.40;72.80;;;;;;5015956;28;20069;-81
2021/12/11 08:56:41;;;;;;;29.17;21.23;;;0.40;72.80;;;;;;5016090;28;20042;-83
2021/12/11 08:59:11;;;;;;;27.50;19.03;;;0.40;72.80;;;;;;5013541;28;20121;-81
2021/12/11 09:01:49;;;;;;;23.13;17.83;;;0.40;73.10;;;;;;5015630;28;20469;-82
2021/12/11 09:04:19;;;;;;;25.00;17.33;;;0.40;72.80;;;;;;5014517;28;20129;-82
2021/12/11 09:06:51;;;;;;;25.13;17.67;;;0.50;72.90;;;;;;5016532;28;20081;-82
2021/12/11 09:09:29;;;;;;;24.80;15.97;;;0.50;72.90;;;;;;5015823;28;20402;-82
2021/12/11 09:12:27;;;;;;;25.13;16.53;;;0.50;72.90;;;;;;5015724;28;20048;-82
2021/12/11 09:15:07;;;;;;;27.00;16.97;;;0.50;72.90;;;;;;4960440;28;20078;-81
2021/12/11 09:17:45;;;;;;;25.57;18.93;;;0.60;73.10;;;;;;4978004;28;20058;-82
2021/12/11 09:20:28;;;;;;;29.37;19.80;;;0.60;73.10;;;;;;4963237;28;20058;-82
2021/12/11 09:23:00;;;;;;;30.20;20.73;;;0.70;73.40;;;;;;4974761;28;20080;-82
2021/12/11 09:25:35;;;;;;;30.00;20.70;;;0.70;73.50;;;;;;4957133;28;20483;-81
2021/12/11 09:28:30;;;;;;;29.23;20.37;;;0.80;73.70;;;;;;4974651;28;20062;-81
2021/12/11 09:31:23;;;;;;;30.55;19.50;;;0.80;73.80;;;;;;4919855;29;20147;-81
2021/12/11 09:34:09;;;;;;;25.73;17.77;;;0.80;73.90;;;;;;4919625;29;20075;-81
2021/12/11 09:36:41;;;;;;;29.57;20.17;;;0.90;74.10;;;;;;4934603;29;20048;-80
2021/12/11 09:39:18;;;;;;;26.87;18.73;;;1.00;74.20;;;;;;4935839;29;20060;-77
2021/12/11 09:41:43;;;;;;;27.83;19.03;;;1.00;74.10;;;;;;4935295;29;20078;-77
2021/12/11 09:44:15;;;;;;;26.13;18.67;;;1.10;74.20;;;;;;4919631;29;20491;-77
2021/12/11 09:47:19;;;;;;;31.67;19.93;;;1.20;74.30;;;;;;4931839;29;20052;-78
2021/12/11 09:49:56;;;;;;;30.00;20.00;;;1.30;74.60;;;;;;4904985;29;20517;-78
2021/12/11 09:52:23;;;;;;;30.93;20.23;;;1.30;74.60;;;;;;4946651;28;20055;-76
2021/12/11 09:55:14;;;;;;;31.27;20.27;;;1.40;74.70;;;;;;4954002;29;20526;-76
2021/12/11 09:57:44;;;;;;;28.60;20.43;;;1.50;75.00;;;;;;4934700;29;20058;-79
2021/12/11 10:00:26;;;;;;;31.10;22.30;;;1.60;75.00;;;;;;4935178;29;20058;-77
2021/12/11 10:02:51;;;;;;;32.73;23.67;;;1.60;75.10;;;;;;4918769;29;20503;-76
2021/12/11 10:05:36;;;;;;;30.33;21.03;;;1.70;75.10;;;;;;4934407;29;20043;-78
2021/12/11 10:08:31;;;;;;;30.73;21.73;;;1.80;75.20;;;;;;4929692;28;20059;-78
2021/12/11 10:11:02;;;;;;;28.83;20.93;;;1.80;75.10;;;;;;4971163;28;20092;-77
2021/12/11 10:13:30;;;;;;;31.23;21.37;;;1.90;75.10;;;;;;4973233;28;20058;-78
2021/12/11 10:15:56;;;;;;;31.13;21.93;;;2.00;75.20;;;;;;4956922;28;20063;-77
2021/12/11 10:18:25;;;;;;;29.10;21.17;;;2.30;75.30;;;;;;4973393;28;20046;-77
2021/12/11 10:21:02;;;;;;;30.70;22.30;;;2.10;75.20;;;;;;4972407;28;20058;-75
2021/12/11 10:23:31;;;;;;;33.73;22.00;;;2.20;75.30;;;;;;4969979;28;20043;-79
2021/12/11 10:26:00;;;;;;;33.13;23.30;;;2.30;75.30;;;;;;4973352;28;20110;-78
2021/12/11 10:28:29;;;;;;;29.77;21.20;;;2.30;75.30;;;;;;4972640;28;20106;-80
2021/12/11 10:31:12;;;;;;;30.20;21.23;;;2.40;75.30;;;;;;4972373;28;20051;-79
2021/12/11 10:33:38;;;;;;;33.43;21.40;;;2.50;75.30;;;;;;4977009;28;20193;-78
2021/12/11 10:36:08;;;;;;;28.97;21.20;;;2.50;75.20;;;;;;5014046;28;20125;-78
2021/12/11 10:38:35;;;;;;;32.88;21.80;;;2.50;75.10;;;;;;5014287;28;20042;-79
2021/12/11 10:41:04;;;;;;;23.97;19.87;;;2.60;75.20;;;;;;5012090;28;20048;-80
2021/12/11 10:43:46;;;;;;;32.33;21.80;;;2.60;75.10;;;;;;5013988;28;20112;-79
2021/12/11 10:46:14;;;;;;;26.07;19.37;;;2.70;75.20;;;;;;5013299;28;20054;-78
2021/12/11 10:48:42;;;;;;;26.77;18.80;;;2.70;75.00;;;;;;4994953;28;20125;-79
2021/12/11 10:51:24;;;;;;;27.17;19.10;;;2.80;75.00;;;;;;5011754;28;20046;-80
2021/12/11 10:53:51;;;;;;;28.83;20.37;;;2.80;74.90;;;;;;5011256;28;20045;-80
2021/12/11 10:56:19;;;;;;;26.83;19.63;;;2.80;74.90;;;;;;5013477;28;20104;-79
2021/12/11 10:58:49;;;;;;;25.23;18.30;;;2.80;74.80;;;;;;5013955;28;20046;-80
2021/12/11 11:01:21;;;;;;;25.43;19.17;;;2.90;74.80;;;;;;5012071;28;20493;-78
2021/12/11 11:03:53;;;;;;;23.73;18.33;;;2.90;74.80;;;;;;5010149;28;20433;-79
2021/12/11 11:06:19;;;;;;;23.80;18.25;;;2.90;74.70;;;;;;5012874;28;20038;-81
2021/12/11 11:08:46;;;;;;;30.83;19.70;;;2.90;74.60;;;;;;5013493;28;20421;-79
2021/12/11 11:11:16;;;;;;;23.60;18.02;;;3.00;74.60;;;;;;5012148;28;20054;-80
2021/12/11 11:13:44;;;;;;;30.47;19.30;;;3.00;74.60;;;;;;5012447;28;20050;-79
2021/12/11 11:16:10;;;;;;;24.10;18.08;;;3.00;74.50;;;;;;5012088;28;20137;-80
2021/12/11 11:18:37;;;;;;;24.40;18.90;;;3.00;74.50;;;;;;5012283;28;20053;-79
2021/12/11 11:21:12;;;;;;;24.53;18.90;;;3.00;74.40;;;;;;5012987;28;20489;-80
2021/12/11 11:23:43;;;;;;;25.27;18.80;;;3.00;74.40;;;;;;5012988;28;20046;-77
2021/12/11 11:26:13;;;;;;;23.63;17.67;;;3.00;74.40;;;;;;5011456;28;20049;-79
2021/12/11 11:28:39;;;;;;;26.67;19.33;;;3.10;74.40;;;;;;5013339;28;20038;-79
2021/12/11 11:31:14;;;;;;;29.35;21.48;;;3.10;74.40;;;;;;5010790;28;20046;-77
2021/12/11 11:33:41;;;;;;;;;;;3.10;74.80;;;;;;5011625;28;20046;-78
2021/12/11 11:36:10;;;;;;;32.80;21.10;;;3.10;74.30;;;;;;5012182;28;19965;-78
2021/12/11 11:38:41;;;;;;;32.08;21.02;;;3.10;74.50;;;;;;5013878;28;20042;-78
2021/12/11 11:41:20;;;;;;;31.80;21.73;;;3.10;74.40;;;;;;5013453;28;20057;-77
2021/12/11 11:43:47;;;;;;;32.15;20.58;;;3.10;74.50;;;;;;4994332;28;20371;-76
2021/12/11 11:46:14;;;;;;;31.73;22.20;;;3.10;74.50;;;;;;5012336;28;20050;-76
2021/12/11 11:48:43;;;;;;;30.52;21.33;;;3.20;74.60;;;;;;4999761;28;20046;-76
2021/12/11 11:51:20;;;;;;;31.60;20.38;;;3.20;74.60;;;;;;5011574;28;20474;-75
2021/12/11 11:53:47;;;;;;;33.13;21.17;;;3.10;74.70;;;;;;5012150;28;20112;-78
2021/12/11 11:56:17;;;;;;;31.23;21.52;;;3.20;74.70;;;;;;5011946;28;20050;-78
2021/12/11 11:58:44;;;;;;;36.00;22.17;;;3.20;74.80;;;;;;5013075;28;20482;-78
2021/12/11 12:01:28;;;;;;;35.17;22.88;;;3.20;74.80;;;;;;5016335;28;20176;-79
2021/12/11 12:03:55;;;;;;;34.78;23.23;;;3.20;75.00;;;;;;5016040;28;20050;-78
2021/12/11 12:06:25;;;;;;;33.17;21.33;;;3.30;75.10;;;;;;5013432;28;20053;-78
2021/12/11 12:08:54;;;;;;;33.23;22.13;;;3.30;75.20;;;;;;5015353;28;20057;-78
2021/12/11 12:11:22;;;;;;;37.63;24.17;;;3.20;75.20;;;;;;5015770;28;20046;-79
2021/12/11 12:13:48;;;;;;;31.95;21.35;;;3.30;75.40;;;;;;5015138;28;20033;-78
2021/12/11 12:16:15;;;;;;;35.38;22.08;;;3.30;75.40;;;;;;5015451;28;20054;-77
2021/12/11 12:18:42;;;;;;;33.35;21.83;;;3.30;75.50;;;;;;5014620;28;20133;-77
2021/12/11 12:21:15;;;;;;;33.13;21.45;;;3.30;75.60;;;;;;5015227;28;20090;-78
2021/12/11 12:23:43;;;;;;;41.80;23.75;;;3.30;75.60;;;;;;5015398;28;20042;-78
2021/12/11 12:26:16;;;;;;;40.60;24.50;;;3.40;75.80;;;;;;5014864;28;20054;-78
2021/12/11 12:28:42;;;;;;;34.20;23.20;;;3.40;75.90;;;;;;5016017;28;20037;-78
2021/12/11 12:31:17;;;;;;;41.80;25.00;;;3.40;75.90;;;;;;5016148;28;20042;-81
2021/12/11 12:33:44;;;;;;;39.00;24.40;;;3.40;76.10;;;;;;5016439;28;20477;-81
2021/12/11 12:36:10;;;;;;;43.08;24.88;;;3.50;76.20;;;;;;4997665;28;20129;-80
2021/12/11 12:38:38;;;;;;;41.55;25.08;;;3.50;76.30;;;;;;5016136;28;20378;-80
2021/12/11 12:41:24;;;;;;;43.25;25.00;;;3.50;76.50;;;;;;5016217;28;20041;-80
2021/12/11 12:44:17;;;;;;;46.80;27.17;;;3.60;76.80;;;;;;5016227;28;20042;-80
2021/12/11 12:46:52;;;;;;;44.20;27.58;;;3.60;76.90;;;;;;5020254;28;20500;-79
2021/12/11 12:49:39;;;;;;;50.03;28.77;;;3.70;77.30;;;;;;5015618;28;20056;-80
2021/12/11 12:52:16;;;;;;;48.42;28.35;;;3.70;77.50;;;;;;5015694;28;20038;-80
2021/12/11 12:54:43;;;;;;;56.67;28.52;;;3.80;77.60;;;;;;5015645;28;20057;-80
2021/12/11 12:57:20;;;;;;;48.15;28.50;;;3.80;77.80;;;;;;5015617;28;20061;-80
2021/12/11 13:00:11;;;;;;;48.97;28.38;;;3.90;77.90;;;;;;5015973;28;20045;-81
2021/12/11 13:02:40;;;;;;;50.45;26.98;;;4.00;78.10;;;;;;5014215;28;20054;-81
2021/12/11 13:05:12;;;;;;;47.85;27.90;;;4.00;78.10;;;;;;5015562;28;20057;-81
2021/12/11 13:07:38;;;;;;;50.55;27.45;;;4.10;78.20;;;;;;4997850;28;20076;-80
2021/12/11 13:10:09;;;;;;;42.08;25.40;;;4.10;78.10;;;;;;5012774;28;20045;-79
2021/12/11 13:12:39;;;;;;;41.67;25.95;;;4.20;78.20;;;;;;5013154;28;20049;-81
2021/12/11 13:15:11;;;;;;;44.95;27.30;;;4.20;78.10;;;;;;5004254;28;20053;-80